createdAt,value
2022-10-21T00:03:07.539Z,1.60
2022-10-21T00:08:10.888Z,1.75
2022-10-21T00:13:14.428Z,1.80
2022-10-21T00:18:19.294Z,1.65
2022-10-21T00:23:22.552Z,1.92
2022-10-21T00:28:26.286Z,2.00
2022-10-21T00:33:30.912Z,1.67
2022-10-21T00:38:35.284Z,1.95
2022-10-21T00:43:54.520Z,2.10
2022-10-21T00:49:01.392Z,1.60
2022-10-21T00:54:06.789Z,1.85
2022-10-21T00:59:10.247Z,2.20
2022-10-21T01:04:14.872Z,1.48
2022-10-21T01:09:19.054Z,1.50
2022-10-21T01:14:45.828Z,1.60
2022-10-21T01:20:37.432Z,1.73
2022-10-21T01:26:18.648Z,1.80
2022-10-21T01:31:28.764Z,1.70
2022-10-21T01:36:38.260Z,2.15
2022-10-21T01:41:45.107Z,2.00
2022-10-21T01:46:55.551Z,2.00
2022-10-21T01:52:01.047Z,1.92
2022-10-21T01:57:05.732Z,1.73
2022-10-21T02:02:11.909Z,2.20
2022-10-21T02:07:15.322Z,1.63
2022-10-21T02:12:20.247Z,1.70
2022-10-21T02:17:27.402Z,1.80
2022-10-21T02:22:31.044Z,1.95
2022-10-21T02:27:34.685Z,1.73
2022-10-21T02:32:45.420Z,2.17
2022-10-21T02:37:55.495Z,1.90
2022-10-21T02:43:03.414Z,1.80
2022-10-21T02:48:08.647Z,1.63
2022-10-21T02:53:14.414Z,1.65
2022-10-21T02:58:17.849Z,1.73
2022-10-21T03:03:22.544Z,2.17
2022-10-21T03:08:26.130Z,1.77
2022-10-21T03:13:29.421Z,1.65
2022-10-21T03:18:34.223Z,1.88
2022-10-21T03:23:37.642Z,1.80
2022-10-21T03:28:40.950Z,2.00
2022-10-21T03:33:45.647Z,1.90
2022-10-21T03:38:48.936Z,2.13
2022-10-21T03:43:52.211Z,2.10
2022-10-21T03:49:02.333Z,2.20
2022-10-21T03:54:08.363Z,1.83
2022-10-21T03:59:11.641Z,2.00
2022-10-21T04:04:16.671Z,2.05
2022-10-21T04:09:21.287Z,2.28
2022-10-21T04:14:24.619Z,2.47
2022-10-21T04:19:29.361Z,2.33
2022-10-21T04:24:32.649Z,1.98
2022-10-21T04:29:36.227Z,2.08
2022-10-21T04:34:41.125Z,2.28
2022-10-21T04:39:44.476Z,1.95
2022-10-21T04:44:47.817Z,1.80
2022-10-21T04:49:53.038Z,2.03
2022-10-21T04:54:56.346Z,1.73
2022-10-21T04:59:59.618Z,1.92
2022-10-21T05:05:04.872Z,2.25
2022-10-21T05:10:08.841Z,2.17
2022-10-21T05:15:14.091Z,2.33
2022-10-21T05:20:18.908Z,2.30
2022-10-21T05:25:23.661Z,1.88
2022-10-21T05:30:27.487Z,1.95
2022-10-21T05:35:32.765Z,2.10
2022-10-21T05:40:36.271Z,2.00
2022-10-21T05:45:39.623Z,2.20
2022-10-21T05:50:45.276Z,2.67
2022-10-21T05:55:56.446Z,2.00
2022-10-21T06:01:00.681Z,1.88
2022-10-21T06:06:07.908Z,2.05
2022-10-21T06:11:13.276Z,2.28
2022-10-21T06:16:17.282Z,1.98
2022-10-21T06:21:22.010Z,2.28
2022-10-21T06:26:25.601Z,2.50
2022-10-21T06:31:28.906Z,2.17
2022-10-21T06:36:34.978Z,2.20
2022-10-21T06:41:38.556Z,2.17
2022-10-21T06:46:41.908Z,2.58
2022-10-21T06:51:46.946Z,2.30
2022-10-21T06:56:50.588Z,1.83
2022-10-21T07:02:01.112Z,2.15
2022-10-21T07:07:06.718Z,2.00
2022-10-21T07:12:10.042Z,2.00
2022-10-21T07:17:15.839Z,2.20
2022-10-21T07:22:20.539Z,1.85
2022-10-21T07:27:23.849Z,2.15
2022-10-21T07:32:27.331Z,1.95
2022-10-21T07:37:32.051Z,1.73
2022-10-21T07:42:35.515Z,2.08
2022-10-21T07:47:40.164Z,1.98
2022-10-21T07:52:54.682Z,2.15
2022-10-21T07:58:07.320Z,1.98
2022-10-21T08:03:12.888Z,1.83
2022-10-21T08:08:17.637Z,2.13
2022-10-21T08:13:21.206Z,2.15
2022-10-21T08:18:26.201Z,1.70
2022-10-21T08:23:30.826Z,2.10
2022-10-21T08:28:34.204Z,2.35
2022-10-21T08:33:37.937Z,2.13
2022-10-21T08:38:43.049Z,1.50
2022-10-21T08:43:46.481Z,1.67
2022-10-21T08:48:55.186Z,1.77
2022-10-21T08:54:06.275Z,1.67
2022-10-21T08:59:20.337Z,1.58
2022-10-21T09:04:32.446Z,1.75
2022-10-21T09:09:42.849Z,2.08
2022-10-21T09:15:11.431Z,2.00
2022-10-21T09:20:28.177Z,2.13
2022-10-21T09:25:36.083Z,1.60
2022-10-21T09:30:40.931Z,2.50
2022-10-21T09:35:48.294Z,1.70
2022-10-21T09:40:59.336Z,1.73
2022-10-21T09:46:02.735Z,2.40
2022-10-21T09:51:11.418Z,2.25
2022-10-21T09:56:20.631Z,1.65
2022-10-21T10:01:24.411Z,1.75
2022-10-21T10:06:36.443Z,1.80
2022-10-21T10:11:51.030Z,1.92
2022-10-21T10:16:55.917Z,1.98
2022-10-21T10:22:10.920Z,1.95
2022-10-21T10:27:21.113Z,1.80
2022-10-21T10:32:26.643Z,1.67
2022-10-21T10:37:32.824Z,1.83
2022-10-21T10:42:44.133Z,1.60
2022-10-21T10:47:50.879Z,1.83
2022-10-21T10:53:23.496Z,1.90
2022-10-21T10:58:32.541Z,2.00
2022-10-21T11:03:42.532Z,1.77
2022-10-21T11:08:51.444Z,2.63
2022-10-21T11:13:56.205Z,1.95
2022-10-21T11:19:09.462Z,1.77
2022-10-21T11:24:25.688Z,1.77
2022-10-21T11:29:47.151Z,1.92
2022-10-21T11:35:00.918Z,1.63
2022-10-21T11:40:14.584Z,1.60
2022-10-21T11:45:34.424Z,1.95
2022-10-21T11:50:47.270Z,1.98
2022-10-21T11:56:02.322Z,1.80
2022-10-21T12:01:23.971Z,2.25
2022-10-21T12:06:35.427Z,2.10
2022-10-21T12:11:44.927Z,2.05
2022-10-21T12:16:51.405Z,1.88
2022-10-21T12:21:54.985Z,2.05
2022-10-21T12:27:04.557Z,2.20
2022-10-21T12:32:23.917Z,1.75
2022-10-21T12:38:22.140Z,1.85
2022-10-21T12:43:28.869Z,2.10
2022-10-21T12:48:38.263Z,2.25
2022-10-21T12:53:48.350Z,2.13
2022-10-21T12:58:59.134Z,2.13
2022-10-21T13:04:04.420Z,2.10
2022-10-21T13:09:32.507Z,2.20
2022-10-21T13:14:43.820Z,1.92
2022-10-21T13:19:49.084Z,2.10
2022-10-21T13:24:52.488Z,1.90
2022-10-21T13:29:56.367Z,2.08
2022-10-21T13:35:26.465Z,2.05
2022-10-21T13:40:36.804Z,2.08
2022-10-21T13:45:48.393Z,2.20
2022-10-21T13:50:53.198Z,1.70
2022-10-21T13:56:00.589Z,1.67
2022-10-21T14:01:09.943Z,2.25
2022-10-21T14:06:21.183Z,2.25
2022-10-21T14:11:31.130Z,2.25
2022-10-21T14:16:40.602Z,1.92
2022-10-21T14:21:46.813Z,2.40
2022-10-21T14:26:51.867Z,2.28
2022-10-21T14:31:58.178Z,2.03
2022-10-21T14:37:07.858Z,2.20
2022-10-21T14:42:19.722Z,2.47
2022-10-21T14:47:25.704Z,2.25
2022-10-21T14:52:35.341Z,2.00
2022-10-21T14:57:43.914Z,2.30
2022-10-21T15:02:49.486Z,2.33
2022-10-21T15:07:53.466Z,2.28
2022-10-21T15:13:00.570Z,2.30
2022-10-21T15:18:06.602Z,2.00
2022-10-21T15:23:20.115Z,1.85
2022-10-21T15:28:26.207Z,1.88
2022-10-21T15:33:29.862Z,2.17
2022-10-21T15:38:33.141Z,2.17
2022-10-21T15:43:38.052Z,2.08
2022-10-21T15:48:42.503Z,3.05
2022-10-21T15:53:46.171Z,2.38
2022-10-21T15:58:50.834Z,2.10
2022-10-21T16:03:55.329Z,1.83
2022-10-21T16:08:58.889Z,2.30
2022-10-21T16:14:04.316Z,2.13
2022-10-21T16:19:08.433Z,2.35
2022-10-21T16:24:12.350Z,2.15
2022-10-21T16:29:21.437Z,2.63
2022-10-21T16:34:25.230Z,2.53
2022-10-21T16:39:28.642Z,2.20
2022-10-21T16:44:33.650Z,2.38
2022-10-21T16:49:37.728Z,2.60
2022-10-21T16:54:43.395Z,2.33
2022-10-21T16:59:49.117Z,2.28
2022-10-21T17:04:53.021Z,2.20
2022-10-21T17:10:03.765Z,2.50
2022-10-21T17:15:10.941Z,2.60
2022-10-21T17:20:14.581Z,2.70
2022-10-21T17:25:19.523Z,2.42
2022-10-21T17:30:25.988Z,2.47
2022-10-21T17:35:37.565Z,2.70
2022-10-21T17:40:42.135Z,2.33
2022-10-21T17:45:47.220Z,2.90
2022-10-21T17:50:57.533Z,2.40
2022-10-21T17:56:03.337Z,3.00
2022-10-21T18:01:11.900Z,2.63
2022-10-21T18:06:19.116Z,2.45
2022-10-21T18:11:24.049Z,2.90
2022-10-21T18:16:36.116Z,2.40
2022-10-21T18:21:40.905Z,2.15
2022-10-21T18:26:47.005Z,2.50
2022-10-21T18:31:54.240Z,2.92
2022-10-21T18:37:00.523Z,3.08
2022-10-21T18:42:05.729Z,2.80
2022-10-21T18:47:11.862Z,3.17
2022-10-21T18:52:16.589Z,2.95
2022-10-21T18:57:21.802Z,2.60
2022-10-21T19:02:28.018Z,2.17
2022-10-21T19:07:34.207Z,2.40
2022-10-21T19:12:40.269Z,2.80
2022-10-21T19:17:47.388Z,2.33
2022-10-21T19:22:54.386Z,3.25
2022-10-21T19:28:00.432Z,2.97
2022-10-21T19:33:08.641Z,4.40
2022-10-21T19:38:26.073Z,5.32
2022-10-21T19:43:37.269Z,4.15
2022-10-21T19:48:44.395Z,3.78
2022-10-21T19:53:50.409Z,3.05
2022-10-21T19:58:55.636Z,3.17
2022-10-21T20:04:03.406Z,3.20
2022-10-21T20:09:10.027Z,2.92
2022-10-21T20:14:19.372Z,2.75
2022-10-21T20:19:24.734Z,3.00
2022-10-21T20:24:28.095Z,2.88
2022-10-21T20:29:31.766Z,3.30
2022-10-21T20:34:37.713Z,3.00
2022-10-21T20:39:41.495Z,3.00
2022-10-21T20:49:50.630Z,2.58
2022-10-21T20:54:55.405Z,2.63
2022-10-21T20:59:59.094Z,2.65
2022-10-21T21:05:04.119Z,2.88
2022-10-21T21:10:08.538Z,3.17
2022-10-21T21:15:12.321Z,2.83
2022-10-21T21:20:17.225Z,2.67
2022-10-21T21:25:20.782Z,2.70
2022-10-21T21:30:24.332Z,2.65
2022-10-21T21:35:35.119Z,2.42
2022-10-21T21:40:38.731Z,2.60
2022-10-21T21:45:44.966Z,3.03
2022-10-21T21:50:51.676Z,2.92
2022-10-21T21:55:56.880Z,2.80
2022-10-21T22:01:10.023Z,2.67
2022-10-21T22:06:22.159Z,2.95
2022-10-21T22:11:27.375Z,3.60
2022-10-21T22:16:31.125Z,2.92
2022-10-21T22:21:35.793Z,3.05
2022-10-21T22:26:39.138Z,3.40
2022-10-21T22:31:42.769Z,2.90
2022-10-21T22:36:47.437Z,2.75
2022-10-21T22:41:50.825Z,3.03
2022-10-21T22:46:54.187Z,2.90
2022-10-21T22:51:58.883Z,2.75
2022-10-21T22:57:02.342Z,2.80
2022-10-21T23:02:05.906Z,2.78
2022-10-21T23:07:10.932Z,3.10
2022-10-21T23:12:14.550Z,3.00
2022-10-21T23:17:18.185Z,3.00
2022-10-21T23:22:23.255Z,2.88
2022-10-21T23:27:28.196Z,3.05
2022-10-21T23:32:31.579Z,3.00
2022-10-21T23:37:36.403Z,2.67
2022-10-21T23:42:42.764Z,2.78
2022-10-21T23:47:46.581Z,2.97
2022-10-21T23:52:51.751Z,3.03
2022-10-21T23:57:57.458Z,2.92
